sensor_id;sensor_type;location;lat;lon;timestamp;P1;durP1;ratioP1;P2;durP2;ratioP2
23390;SDS011;11868;45.606;5.302;2023-08-07T00:01:29;8.07;;;3.17;;
23390;SDS011;11868;45.606;5.302;2023-08-07T00:03:54;8.00;;;3.97;;
23390;SDS011;11868;45.606;5.302;2023-08-07T00:06:19;7.65;;;3.00;;
23390;SDS011;11868;45.606;5.302;2023-08-07T00:08:45;5.03;;;1.75;;
23390;SDS011;11868;45.606;5.302;2023-08-07T00:11:10;4.90;;;1.50;;
23390;SDS011;11868;45.606;5.302;2023-08-07T00:13:36;6.72;;;1.50;;
23390;SDS011;11868;45.606;5.302;2023-08-07T00:16:01;4.43;;;1.35;;
23390;SDS011;11868;45.606;5.302;2023-08-07T00:18:28;4.32;;;1.30;;
23390;SDS011;11868;45.606;5.302;2023-08-07T00:20:54;3.30;;;1.08;;
23390;SDS011;11868;45.606;5.302;2023-08-07T00:23:19;4.68;;;1.40;;
23390;SDS011;11868;45.606;5.302;2023-08-07T00:25:44;5.55;;;1.50;;
23390;SDS011;11868;45.606;5.302;2023-08-07T00:28:10;3.85;;;1.52;;
23390;SDS011;11868;45.606;5.302;2023-08-07T00:30:35;6.25;;;1.30;;
23390;SDS011;11868;45.606;5.302;2023-08-07T00:33:00;4.22;;;1.42;;
23390;SDS011;11868;45.606;5.302;2023-08-07T00:35:25;4.13;;;1.85;;
23390;SDS011;11868;45.606;5.302;2023-08-07T00:37:51;2.65;;;1.35;;
23390;SDS011;11868;45.606;5.302;2023-08-07T00:40:17;3.58;;;1.20;;
23390;SDS011;11868;45.606;5.302;2023-08-07T00:42:42;4.32;;;1.30;;
23390;SDS011;11868;45.606;5.302;2023-08-07T00:45:08;2.03;;;1.30;;
23390;SDS011;11868;45.606;5.302;2023-08-07T00:47:33;7.53;;;1.77;;
23390;SDS011;11868;45.606;5.302;2023-08-07T00:49:59;3.95;;;1.60;;
23390;SDS011;11868;45.606;5.302;2023-08-07T00:52:24;4.40;;;1.77;;
23390;SDS011;11868;45.606;5.302;2023-08-07T00:54:50;5.55;;;1.60;;
23390;SDS011;11868;45.606;5.302;2023-08-07T00:57:15;4.68;;;1.80;;
23390;SDS011;11868;45.606;5.302;2023-08-07T00:59:41;7.30;;;3.20;;
23390;SDS011;11868;45.606;5.302;2023-08-07T01:02:08;20.00;;;8.57;;
23390;SDS011;11868;45.606;5.302;2023-08-07T01:04:34;5.65;;;2.08;;
23390;SDS011;11868;45.606;5.302;2023-08-07T01:06:59;5.72;;;1.63;;
23390;SDS011;11868;45.606;5.302;2023-08-07T01:09:25;4.60;;;1.63;;
23390;SDS011;11868;45.606;5.302;2023-08-07T01:11:55;2.63;;;1.60;;
23390;SDS011;11868;45.606;5.302;2023-08-07T01:14:28;4.40;;;1.50;;
23390;SDS011;11868;45.606;5.302;2023-08-07T01:17:17;4.22;;;1.65;;
23390;SDS011;11868;45.606;5.302;2023-08-07T01:19:45;7.25;;;1.80;;
23390;SDS011;11868;45.606;5.302;2023-08-07T01:22:15;4.03;;;1.73;;
23390;SDS011;11868;45.606;5.302;2023-08-07T01:24:42;4.70;;;1.40;;
23390;SDS011;11868;45.606;5.302;2023-08-07T01:35:19;5.13;;;2.25;;
23390;SDS011;11868;45.606;5.302;2023-08-07T01:37:46;6.43;;;2.00;;
23390;SDS011;11868;45.606;5.302;2023-08-07T01:40:11;6.55;;;1.77;;
23390;SDS011;11868;45.606;5.302;2023-08-07T01:42:37;3.45;;;1.52;;
23390;SDS011;11868;45.606;5.302;2023-08-07T01:45:04;7.07;;;2.13;;
23390;SDS011;11868;45.606;5.302;2023-08-07T01:47:30;3.50;;;1.70;;
23390;SDS011;11868;45.606;5.302;2023-08-07T01:49:55;3.88;;;1.70;;
23390;SDS011;11868;45.606;5.302;2023-08-07T01:52:20;5.13;;;1.88;;
23390;SDS011;11868;45.606;5.302;2023-08-07T01:54:46;4.35;;;2.10;;
23390;SDS011;11868;45.606;5.302;2023-08-07T01:57:11;4.55;;;1.70;;
23390;SDS011;11868;45.606;5.302;2023-08-07T01:59:37;4.40;;;1.58;;
23390;SDS011;11868;45.606;5.302;2023-08-07T02:02:02;10.40;;;2.08;;
23390;SDS011;11868;45.606;5.302;2023-08-07T02:04:28;5.13;;;1.80;;
23390;SDS011;11868;45.606;5.302;2023-08-07T02:06:53;4.95;;;1.50;;
23390;SDS011;11868;45.606;5.302;2023-08-07T02:09:18;2.22;;;1.40;;
23390;SDS011;11868;45.606;5.302;2023-08-07T02:11:44;2.08;;;1.63;;
23390;SDS011;11868;45.606;5.302;2023-08-07T02:14:09;5.47;;;2.00;;
23390;SDS011;11868;45.606;5.302;2023-08-07T02:16:35;3.92;;;1.70;;
23390;SDS011;11868;45.606;5.302;2023-08-07T02:19:01;2.83;;;1.75;;
23390;SDS011;11868;45.606;5.302;2023-08-07T02:21:26;5.55;;;1.90;;
23390;SDS011;11868;45.606;5.302;2023-08-07T02:23:51;3.35;;;1.50;;
23390;SDS011;11868;45.606;5.302;2023-08-07T02:26:17;3.75;;;1.60;;
23390;SDS011;11868;45.606;5.302;2023-08-07T02:28:42;2.92;;;1.60;;
23390;SDS011;11868;45.606;5.302;2023-08-07T02:31:07;5.25;;;1.50;;
23390;SDS011;11868;45.606;5.302;2023-08-07T02:33:32;6.05;;;1.85;;
23390;SDS011;11868;45.606;5.302;2023-08-07T02:35:58;3.72;;;1.67;;
23390;SDS011;11868;45.606;5.302;2023-08-07T02:38:24;4.63;;;1.92;;
23390;SDS011;11868;45.606;5.302;2023-08-07T02:40:50;4.00;;;1.70;;
23390;SDS011;11868;45.606;5.302;2023-08-07T02:43:15;3.50;;;1.58;;
23390;SDS011;11868;45.606;5.302;2023-08-07T02:45:40;4.32;;;1.60;;
23390;SDS011;11868;45.606;5.302;2023-08-07T02:48:06;5.22;;;1.60;;
23390;SDS011;11868;45.606;5.302;2023-08-07T02:50:31;3.50;;;1.83;;
23390;SDS011;11868;45.606;5.302;2023-08-07T02:53:00;5.95;;;1.90;;
23390;SDS011;11868;45.606;5.302;2023-08-07T02:55:26;2.85;;;1.50;;
23390;SDS011;11868;45.606;5.302;2023-08-07T02:57:52;5.75;;;1.70;;
23390;SDS011;11868;45.606;5.302;2023-08-07T03:00:17;5.28;;;1.45;;
23390;SDS011;11868;45.606;5.302;2023-08-07T03:02:42;3.72;;;1.80;;
23390;SDS011;11868;45.606;5.302;2023-08-07T03:05:08;3.35;;;1.80;;
23390;SDS011;11868;45.606;5.302;2023-08-07T03:07:33;6.40;;;1.60;;
23390;SDS011;11868;45.606;5.302;2023-08-07T03:09:59;4.68;;;1.65;;
23390;SDS011;11868;45.606;5.302;2023-08-07T03:12:24;4.40;;;2.00;;
23390;SDS011;11868;45.606;5.302;2023-08-07T03:14:50;2.80;;;1.80;;
23390;SDS011;11868;45.606;5.302;2023-08-07T03:17:15;4.40;;;1.52;;
23390;SDS011;11868;45.606;5.302;2023-08-07T03:19:41;3.53;;;1.60;;
23390;SDS011;11868;45.606;5.302;2023-08-07T03:22:07;3.13;;;1.70;;
23390;SDS011;11868;45.606;5.302;2023-08-07T03:24:32;2.78;;;1.75;;
23390;SDS011;11868;45.606;5.302;2023-08-07T03:26:58;6.72;;;1.92;;
23390;SDS011;11868;45.606;5.302;2023-08-07T03:29:23;3.03;;;1.75;;
23390;SDS011;11868;45.606;5.302;2023-08-07T03:31:49;2.58;;;1.70;;
23390;SDS011;11868;45.606;5.302;2023-08-07T03:34:14;6.63;;;1.63;;
23390;SDS011;11868;45.606;5.302;2023-08-07T03:36:39;3.03;;;1.88;;
23390;SDS011;11868;45.606;5.302;2023-08-07T03:39:05;3.13;;;1.80;;
23390;SDS011;11868;45.606;5.302;2023-08-07T03:41:30;3.65;;;1.83;;
23390;SDS011;11868;45.606;5.302;2023-08-07T03:43:55;5.50;;;1.95;;
23390;SDS011;11868;45.606;5.302;2023-08-07T03:46:21;7.63;;;1.90;;
23390;SDS011;11868;45.606;5.302;2023-08-07T03:48:46;2.42;;;1.67;;
23390;SDS011;11868;45.606;5.302;2023-08-07T03:51:11;6.00;;;1.83;;
23390;SDS011;11868;45.606;5.302;2023-08-07T03:53:37;3.53;;;1.80;;
23390;SDS011;11868;45.606;5.302;2023-08-07T03:56:02;2.83;;;1.65;;
23390;SDS011;11868;45.606;5.302;2023-08-07T03:58:28;3.38;;;1.60;;
23390;SDS011;11868;45.606;5.302;2023-08-07T04:00:54;3.53;;;1.70;;
23390;SDS011;11868;45.606;5.302;2023-08-07T04:03:20;5.00;;;1.75;;
23390;SDS011;11868;45.606;5.302;2023-08-07T04:05:46;4.25;;;1.98;;
23390;SDS011;11868;45.606;5.302;2023-08-07T04:08:11;3.72;;;1.58;;
23390;SDS011;11868;45.606;5.302;2023-08-07T04:10:36;5.53;;;1.60;;
23390;SDS011;11868;45.606;5.302;2023-08-07T04:13:02;2.80;;;1.58;;
23390;SDS011;11868;45.606;5.302;2023-08-07T04:15:27;4.85;;;1.83;;
23390;SDS011;11868;45.606;5.302;2023-08-07T04:17:52;3.47;;;1.83;;
23390;SDS011;11868;45.606;5.302;2023-08-07T04:20:18;3.00;;;1.40;;
23390;SDS011;11868;45.606;5.302;2023-08-07T04:22:45;4.18;;;2.05;;
23390;SDS011;11868;45.606;5.302;2023-08-07T04:25:11;4.07;;;1.73;;
23390;SDS011;11868;45.606;5.302;2023-08-07T04:27:36;3.58;;;1.75;;
23390;SDS011;11868;45.606;5.302;2023-08-07T04:30:03;4.57;;;1.77;;
23390;SDS011;11868;45.606;5.302;2023-08-07T04:32:29;3.15;;;1.50;;
23390;SDS011;11868;45.606;5.302;2023-08-07T04:34:55;3.00;;;1.52;;
23390;SDS011;11868;45.606;5.302;2023-08-07T04:37:20;2.80;;;1.60;;
23390;SDS011;11868;45.606;5.302;2023-08-07T04:39:45;3.25;;;1.80;;
23390;SDS011;11868;45.606;5.302;2023-08-07T04:42:11;3.83;;;1.75;;
23390;SDS011;11868;45.606;5.302;2023-08-07T04:44:36;3.05;;;1.70;;
23390;SDS011;11868;45.606;5.302;2023-08-07T04:47:01;3.03;;;1.70;;
23390;SDS011;11868;45.606;5.302;2023-08-07T04:49:27;4.40;;;1.58;;
23390;SDS011;11868;45.606;5.302;2023-08-07T04:51:52;3.55;;;1.83;;
23390;SDS011;11868;45.606;5.302;2023-08-07T04:54:17;3.15;;;1.77;;
23390;SDS011;11868;45.606;5.302;2023-08-07T04:56:43;3.17;;;1.50;;
23390;SDS011;11868;45.606;5.302;2023-08-07T04:59:09;3.30;;;1.50;;
23390;SDS011;11868;45.606;5.302;2023-08-07T05:01:35;5.72;;;1.67;;
23390;SDS011;11868;45.606;5.302;2023-08-07T05:04:00;3.70;;;1.58;;
23390;SDS011;11868;45.606;5.302;2023-08-07T05:06:26;3.08;;;1.42;;
23390;SDS011;11868;45.606;5.302;2023-08-07T05:08:52;2.88;;;1.65;;
23390;SDS011;11868;45.606;5.302;2023-08-07T05:11:17;4.97;;;1.83;;
23390;SDS011;11868;45.606;5.302;2023-08-07T05:13:42;2.30;;;1.60;;
23390;SDS011;11868;45.606;5.302;2023-08-07T05:16:08;5.10;;;2.00;;
23390;SDS011;11868;45.606;5.302;2023-08-07T05:18:33;4.43;;;2.00;;
23390;SDS011;11868;45.606;5.302;2023-08-07T05:20:58;4.95;;;1.92;;
23390;SDS011;11868;45.606;5.302;2023-08-07T05:23:24;4.75;;;1.80;;
23390;SDS011;11868;45.606;5.302;2023-08-07T05:25:49;10.13;;;1.70;;
23390;SDS011;11868;45.606;5.302;2023-08-07T05:28:14;4.28;;;1.80;;
23390;SDS011;11868;45.606;5.302;2023-08-07T05:30:40;5.28;;;1.88;;
23390;SDS011;11868;45.606;5.302;2023-08-07T05:33:05;5.53;;;1.90;;
23390;SDS011;11868;45.606;5.302;2023-08-07T05:35:30;5.90;;;1.90;;
23390;SDS011;11868;45.606;5.302;2023-08-07T05:37:56;2.28;;;1.55;;
23390;SDS011;11868;45.606;5.302;2023-08-07T05:40:21;6.07;;;1.98;;
23390;SDS011;11868;45.606;5.302;2023-08-07T05:42:46;2.90;;;1.65;;
23390;SDS011;11868;45.606;5.302;2023-08-07T05:45:12;3.72;;;1.85;;
23390;SDS011;11868;45.606;5.302;2023-08-07T05:47:37;3.53;;;1.70;;
23390;SDS011;11868;45.606;5.302;2023-08-07T05:50:02;3.15;;;1.65;;
23390;SDS011;11868;45.606;5.302;2023-08-07T05:52:28;5.53;;;1.70;;
23390;SDS011;11868;45.606;5.302;2023-08-07T05:54:53;3.97;;;1.80;;
23390;SDS011;11868;45.606;5.302;2023-08-07T05:57:19;5.88;;;1.58;;
23390;SDS011;11868;45.606;5.302;2023-08-07T05:59:44;4.18;;;1.70;;
23390;SDS011;11868;45.606;5.302;2023-08-07T06:02:10;3.65;;;1.58;;
23390;SDS011;11868;45.606;5.302;2023-08-07T06:04:38;4.32;;;1.60;;
23390;SDS011;11868;45.606;5.302;2023-08-07T06:07:04;3.25;;;1.52;;
23390;SDS011;11868;45.606;5.302;2023-08-07T06:09:30;6.25;;;1.67;;
23390;SDS011;11868;45.606;5.302;2023-08-07T06:11:55;3.50;;;1.77;;
23390;SDS011;11868;45.606;5.302;2023-08-07T06:14:21;1.95;;;1.45;;
23390;SDS011;11868;45.606;5.302;2023-08-07T06:16:46;2.97;;;1.48;;
23390;SDS011;11868;45.606;5.302;2023-08-07T06:19:11;4.07;;;1.50;;
23390;SDS011;11868;45.606;5.302;2023-08-07T06:21:37;4.43;;;1.80;;
23390;SDS011;11868;45.606;5.302;2023-08-07T06:24:02;3.63;;;1.77;;
23390;SDS011;11868;45.606;5.302;2023-08-07T06:26:27;5.50;;;2.25;;
23390;SDS011;11868;45.606;5.302;2023-08-07T06:28:53;3.35;;;1.60;;
23390;SDS011;11868;45.606;5.302;2023-08-07T06:31:18;3.25;;;1.67;;
23390;SDS011;11868;45.606;5.302;2023-08-07T06:33:43;3.38;;;1.60;;
23390;SDS011;11868;45.606;5.302;2023-08-07T06:36:09;5.47;;;1.77;;
23390;SDS011;11868;45.606;5.302;2023-08-07T06:38:34;6.30;;;1.77;;
23390;SDS011;11868;45.606;5.302;2023-08-07T06:41:00;5.03;;;2.00;;
23390;SDS011;11868;45.606;5.302;2023-08-07T06:43:25;4.50;;;1.88;;
23390;SDS011;11868;45.606;5.302;2023-08-07T06:45:51;7.25;;;2.25;;
23390;SDS011;11868;45.606;5.302;2023-08-07T06:48:19;5.35;;;1.90;;
23390;SDS011;11868;45.606;5.302;2023-08-07T06:50:48;4.50;;;1.80;;
23390;SDS011;11868;45.606;5.302;2023-08-07T06:53:14;2.53;;;1.50;;
23390;SDS011;11868;45.606;5.302;2023-08-07T06:55:40;4.80;;;1.70;;
23390;SDS011;11868;45.606;5.302;2023-08-07T06:58:06;7.65;;;1.60;;
23390;SDS011;11868;45.606;5.302;2023-08-07T07:00:31;4.38;;;1.63;;
23390;SDS011;11868;45.606;5.302;2023-08-07T07:02:58;3.63;;;1.40;;
23390;SDS011;11868;45.606;5.302;2023-08-07T07:05:24;2.42;;;1.45;;
23390;SDS011;11868;45.606;5.302;2023-08-07T07:07:49;2.50;;;1.48;;
23390;SDS011;11868;45.606;5.302;2023-08-07T07:10:14;2.67;;;1.70;;
23390;SDS011;11868;45.606;5.302;2023-08-07T07:12:40;4.82;;;1.63;;
23390;SDS011;11868;45.606;5.302;2023-08-07T07:15:05;3.42;;;1.40;;
23390;SDS011;11868;45.606;5.302;2023-08-07T07:17:31;6.38;;;1.55;;
23390;SDS011;11868;45.606;5.302;2023-08-07T07:19:56;3.30;;;1.67;;
23390;SDS011;11868;45.606;5.302;2023-08-07T07:22:22;5.47;;;1.90;;
23390;SDS011;11868;45.606;5.302;2023-08-07T07:24:47;4.10;;;1.40;;
23390;SDS011;11868;45.606;5.302;2023-08-07T07:27:13;3.33;;;1.73;;
23390;SDS011;11868;45.606;5.302;2023-08-07T07:29:38;6.32;;;1.95;;
23390;SDS011;11868;45.606;5.302;2023-08-07T07:32:03;5.28;;;1.73;;
23390;SDS011;11868;45.606;5.302;2023-08-07T07:34:29;2.83;;;1.27;;
23390;SDS011;11868;45.606;5.302;2023-08-07T07:36:54;3.17;;;1.52;;
23390;SDS011;11868;45.606;5.302;2023-08-07T07:39:20;4.10;;;1.58;;
23390;SDS011;11868;45.606;5.302;2023-08-07T07:41:46;4.70;;;1.58;;
23390;SDS011;11868;45.606;5.302;2023-08-07T07:44:11;1.77;;;1.35;;
23390;SDS011;11868;45.606;5.302;2023-08-07T07:46:36;2.72;;;1.70;;
23390;SDS011;11868;45.606;5.302;2023-08-07T07:49:02;3.38;;;1.55;;
23390;SDS011;11868;45.606;5.302;2023-08-07T07:51:29;2.45;;;1.60;;
23390;SDS011;11868;45.606;5.302;2023-08-07T07:53:56;3.17;;;1.70;;
23390;SDS011;11868;45.606;5.302;2023-08-07T07:56:22;7.05;;;1.42;;
23390;SDS011;11868;45.606;5.302;2023-08-07T07:58:47;6.32;;;1.50;;
23390;SDS011;11868;45.606;5.302;2023-08-07T08:01:12;2.10;;;1.30;;
23390;SDS011;11868;45.606;5.302;2023-08-07T08:03:38;4.05;;;1.60;;
23390;SDS011;11868;45.606;5.302;2023-08-07T08:06:04;3.38;;;1.35;;
23390;SDS011;11868;45.606;5.302;2023-08-07T08:08:29;2.20;;;1.30;;
23390;SDS011;11868;45.606;5.302;2023-08-07T08:10:55;1.80;;;1.20;;
23390;SDS011;11868;45.606;5.302;2023-08-07T08:13:20;6.13;;;1.60;;
23390;SDS011;11868;45.606;5.302;2023-08-07T08:15:45;3.38;;;1.48;;
23390;SDS011;11868;45.606;5.302;2023-08-07T08:18:11;1.85;;;1.30;;
23390;SDS011;11868;45.606;5.302;2023-08-07T08:20:37;4.95;;;1.50;;
23390;SDS011;11868;45.606;5.302;2023-08-07T08:23:02;3.88;;;1.48;;
23390;SDS011;11868;45.606;5.302;2023-08-07T08:25:28;6.00;;;1.63;;
23390;SDS011;11868;45.606;5.302;2023-08-07T08:27:53;11.02;;;1.40;;
23390;SDS011;11868;45.606;5.302;2023-08-07T08:30:19;3.13;;;1.38;;
23390;SDS011;11868;45.606;5.302;2023-08-07T08:32:45;2.50;;;1.30;;
23390;SDS011;11868;45.606;5.302;2023-08-07T08:35:10;2.85;;;1.20;;
23390;SDS011;11868;45.606;5.302;2023-08-07T08:40:02;4.10;;;1.50;;
23390;SDS011;11868;45.606;5.302;2023-08-07T08:42:28;1.92;;;1.15;;
23390;SDS011;11868;45.606;5.302;2023-08-07T08:44:54;2.35;;;1.30;;
23390;SDS011;11868;45.606;5.302;2023-08-07T08:47:22;4.65;;;1.30;;
23390;SDS011;11868;45.606;5.302;2023-08-07T08:50:00;4.85;;;1.30;;
23390;SDS011;11868;45.606;5.302;2023-08-07T08:52:28;2.80;;;1.10;;
23390;SDS011;11868;45.606;5.302;2023-08-07T08:54:53;5.07;;;1.20;;
23390;SDS011;11868;45.606;5.302;2023-08-07T08:57:19;2.15;;;1.00;;
23390;SDS011;11868;45.606;5.302;2023-08-07T08:59:45;1.75;;;1.10;;
23390;SDS011;11868;45.606;5.302;2023-08-07T09:02:10;1.73;;;1.10;;
23390;SDS011;11868;45.606;5.302;2023-08-07T09:04:36;3.53;;;1.02;;
23390;SDS011;11868;45.606;5.302;2023-08-07T09:07:02;2.63;;;1.00;;
23390;SDS011;11868;45.606;5.302;2023-08-07T09:09:27;1.40;;;1.00;;
23390;SDS011;11868;45.606;5.302;2023-08-07T09:11:53;3.72;;;1.15;;
23390;SDS011;11868;45.606;5.302;2023-08-07T09:14:22;2.13;;;1.00;;
23390;SDS011;11868;45.606;5.302;2023-08-07T09:16:50;1.50;;;0.90;;
23390;SDS011;11868;45.606;5.302;2023-08-07T09:19:16;2.30;;;1.00;;
23390;SDS011;11868;45.606;5.302;2023-08-07T09:21:41;1.40;;;0.80;;
23390;SDS011;11868;45.606;5.302;2023-08-07T09:24:06;1.52;;;0.77;;
23390;SDS011;11868;45.606;5.302;2023-08-07T09:26:32;4.13;;;0.90;;
23390;SDS011;11868;45.606;5.302;2023-08-07T09:29:01;2.83;;;1.00;;
23390;SDS011;11868;45.606;5.302;2023-08-07T09:31:27;2.85;;;1.05;;
23390;SDS011;11868;45.606;5.302;2023-08-07T09:33:57;4.70;;;0.90;;
23390;SDS011;11868;45.606;5.302;2023-08-07T09:36:26;0.93;;;0.70;;
23390;SDS011;11868;45.606;5.302;2023-08-07T09:38:51;1.55;;;0.90;;
23390;SDS011;11868;45.606;5.302;2023-08-07T09:41:17;2.58;;;0.93;;
23390;SDS011;11868;45.606;5.302;2023-08-07T09:43:44;2.47;;;1.10;;
23390;SDS011;11868;45.606;5.302;2023-08-07T09:46:09;2.30;;;0.82;;
23390;SDS011;11868;45.606;5.302;2023-08-07T09:48:42;2.65;;;0.70;;
23390;SDS011;11868;45.606;5.302;2023-08-07T09:51:08;3.17;;;1.00;;
23390;SDS011;11868;45.606;5.302;2023-08-07T09:53:34;3.50;;;0.65;;
23390;SDS011;11868;45.606;5.302;2023-08-07T09:55:59;1.40;;;0.75;;
23390;SDS011;11868;45.606;5.302;2023-08-07T09:58:25;2.38;;;0.90;;
23390;SDS011;11868;45.606;5.302;2023-08-07T10:00:51;1.30;;;0.80;;
23390;SDS011;11868;45.606;5.302;2023-08-07T10:03:24;1.65;;;0.80;;
23390;SDS011;11868;45.606;5.302;2023-08-07T10:05:50;3.28;;;0.90;;
23390;SDS011;11868;45.606;5.302;2023-08-07T10:08:16;1.33;;;0.70;;
23390;SDS011;11868;45.606;5.302;2023-08-07T10:10:41;1.27;;;0.80;;
23390;SDS011;11868;45.606;5.302;2023-08-07T10:13:07;1.75;;;0.60;;
23390;SDS011;11868;45.606;5.302;2023-08-07T10:15:33;0.98;;;0.70;;
23390;SDS011;11868;45.606;5.302;2023-08-07T10:18:01;1.25;;;0.80;;
23390;SDS011;11868;45.606;5.302;2023-08-07T10:20:28;0.80;;;0.70;;
23390;SDS011;11868;45.606;5.302;2023-08-07T10:22:56;3.67;;;0.93;;
23390;SDS011;11868;45.606;5.302;2023-08-07T10:25:25;2.35;;;0.70;;
23390;SDS011;11868;45.606;5.302;2023-08-07T10:27:52;3.35;;;0.70;;
23390;SDS011;11868;45.606;5.302;2023-08-07T10:30:18;1.40;;;0.77;;
23390;SDS011;11868;45.606;5.302;2023-08-07T10:32:45;2.53;;;0.80;;
23390;SDS011;11868;45.606;5.302;2023-08-07T10:35:22;1.30;;;0.80;;
23390;SDS011;11868;45.606;5.302;2023-08-07T10:37:52;1.80;;;0.90;;
23390;SDS011;11868;45.606;5.302;2023-08-07T10:40:20;2.33;;;0.88;;
23390;SDS011;11868;45.606;5.302;2023-08-07T10:42:56;1.90;;;0.90;;
23390;SDS011;11868;45.606;5.302;2023-08-07T10:45:23;2.38;;;1.00;;
23390;SDS011;11868;45.606;5.302;2023-08-07T10:50:31;2.58;;;0.60;;
23390;SDS011;11868;45.606;5.302;2023-08-07T10:52:59;2.28;;;0.90;;
23390;SDS011;11868;45.606;5.302;2023-08-07T10:55:25;1.25;;;0.80;;
23390;SDS011;11868;45.606;5.302;2023-08-07T10:57:51;2.15;;;0.90;;
23390;SDS011;11868;45.606;5.302;2023-08-07T11:00:17;1.67;;;0.77;;
23390;SDS011;11868;45.606;5.302;2023-08-07T11:02:42;4.32;;;0.85;;
23390;SDS011;11868;45.606;5.302;2023-08-07T11:05:08;3.28;;;0.90;;
23390;SDS011;11868;45.606;5.302;2023-08-07T11:07:33;1.30;;;0.90;;
23390;SDS011;11868;45.606;5.302;2023-08-07T11:09:59;1.13;;;0.70;;
23390;SDS011;11868;45.606;5.302;2023-08-07T11:12:24;1.40;;;0.80;;
23390;SDS011;11868;45.606;5.302;2023-08-07T11:14:51;3.05;;;0.80;;
23390;SDS011;11868;45.606;5.302;2023-08-07T11:17:17;1.10;;;0.70;;
23390;SDS011;11868;45.606;5.302;2023-08-07T11:19:43;1.23;;;0.70;;
23390;SDS011;11868;45.606;5.302;2023-08-07T11:22:08;1.60;;;0.90;;
23390;SDS011;11868;45.606;5.302;2023-08-07T11:24:35;1.77;;;0.70;;
23390;SDS011;11868;45.606;5.302;2023-08-07T11:27:00;2.65;;;0.95;;
23390;SDS011;11868;45.606;5.302;2023-08-07T11:29:25;0.77;;;0.70;;
23390;SDS011;11868;45.606;5.302;2023-08-07T11:31:51;0.85;;;0.70;;
23390;SDS011;11868;45.606;5.302;2023-08-07T11:34:17;2.47;;;0.85;;
23390;SDS011;11868;45.606;5.302;2023-08-07T11:36:43;2.42;;;0.80;;
23390;SDS011;11868;45.606;5.302;2023-08-07T11:39:09;1.13;;;0.68;;
23390;SDS011;11868;45.606;5.302;2023-08-07T11:41:35;2.22;;;0.80;;
23390;SDS011;11868;45.606;5.302;2023-08-07T11:44:00;0.80;;;0.60;;
23390;SDS011;11868;45.606;5.302;2023-08-07T11:46:25;4.20;;;0.90;;
23390;SDS011;11868;45.606;5.302;2023-08-07T11:48:51;2.63;;;0.90;;
23390;SDS011;11868;45.606;5.302;2023-08-07T11:51:17;2.83;;;0.90;;
23390;SDS011;11868;45.606;5.302;2023-08-07T11:53:42;1.27;;;0.60;;
23390;SDS011;11868;45.606;5.302;2023-08-07T11:56:08;1.60;;;0.90;;
23390;SDS011;11868;45.606;5.302;2023-08-07T11:58:42;1.77;;;0.77;;
23390;SDS011;11868;45.606;5.302;2023-08-07T12:01:12;1.50;;;0.60;;
23390;SDS011;11868;45.606;5.302;2023-08-07T12:03:42;2.53;;;0.77;;
23390;SDS011;11868;45.606;5.302;2023-08-07T12:06:15;2.65;;;0.90;;
23390;SDS011;11868;45.606;5.302;2023-08-07T12:08:41;1.05;;;0.70;;
23390;SDS011;11868;45.606;5.302;2023-08-07T12:11:11;5.68;;;0.60;;
23390;SDS011;11868;45.606;5.302;2023-08-07T12:13:37;2.22;;;0.80;;
23390;SDS011;11868;45.606;5.302;2023-08-07T12:16:07;0.70;;;0.70;;
23390;SDS011;11868;45.606;5.302;2023-08-07T12:18:33;3.63;;;0.90;;
23390;SDS011;11868;45.606;5.302;2023-08-07T12:21:01;2.25;;;0.60;;
23390;SDS011;11868;45.606;5.302;2023-08-07T12:23:34;1.90;;;0.80;;
23390;SDS011;11868;45.606;5.302;2023-08-07T12:26:00;1.50;;;0.93;;
23390;SDS011;11868;45.606;5.302;2023-08-07T12:28:25;2.33;;;1.00;;
23390;SDS011;11868;45.606;5.302;2023-08-07T12:30:51;1.92;;;0.80;;
23390;SDS011;11868;45.606;5.302;2023-08-07T12:33:17;2.78;;;1.00;;
23390;SDS011;11868;45.606;5.302;2023-08-07T12:35:42;4.20;;;0.80;;
23390;SDS011;11868;45.606;5.302;2023-08-07T12:38:08;1.00;;;0.80;;
23390;SDS011;11868;45.606;5.302;2023-08-07T12:40:34;0.68;;;0.68;;
23390;SDS011;11868;45.606;5.302;2023-08-07T12:43:01;2.15;;;0.80;;
23390;SDS011;11868;45.606;5.302;2023-08-07T12:45:27;0.80;;;0.70;;
23390;SDS011;11868;45.606;5.302;2023-08-07T12:47:52;0.73;;;0.70;;
23390;SDS011;11868;45.606;5.302;2023-08-07T12:50:18;1.05;;;0.90;;
23390;SDS011;11868;45.606;5.302;2023-08-07T12:52:43;3.60;;;0.70;;
23390;SDS011;11868;45.606;5.302;2023-08-07T12:55:09;1.33;;;0.70;;
23390;SDS011;11868;45.606;5.302;2023-08-07T12:57:35;2.05;;;0.90;;
23390;SDS011;11868;45.606;5.302;2023-08-07T13:00:00;3.10;;;1.02;;
23390;SDS011;11868;45.606;5.302;2023-08-07T13:02:26;1.92;;;0.73;;
23390;SDS011;11868;45.606;5.302;2023-08-07T13:04:51;1.85;;;0.70;;
23390;SDS011;11868;45.606;5.302;2023-08-07T13:07:17;3.95;;;0.60;;
23390;SDS011;11868;45.606;5.302;2023-08-07T13:09:42;1.45;;;0.77;;
23390;SDS011;11868;45.606;5.302;2023-08-07T13:12:08;1.35;;;0.80;;
23390;SDS011;11868;45.606;5.302;2023-08-07T13:14:33;1.70;;;0.65;;
23390;SDS011;11868;45.606;5.302;2023-08-07T13:16:59;2.65;;;0.77;;
23390;SDS011;11868;45.606;5.302;2023-08-07T13:19:24;0.90;;;0.70;;
23390;SDS011;11868;45.606;5.302;2023-08-07T13:21:50;3.15;;;0.90;;
23390;SDS011;11868;45.606;5.302;2023-08-07T13:24:15;2.08;;;0.90;;
23390;SDS011;11868;45.606;5.302;2023-08-07T13:26:40;1.05;;;0.68;;
23390;SDS011;11868;45.606;5.302;2023-08-07T13:29:12;0.68;;;0.60;;
23390;SDS011;11868;45.606;5.302;2023-08-07T13:31:38;2.22;;;0.80;;
23390;SDS011;11868;45.606;5.302;2023-08-07T13:34:06;1.02;;;0.60;;
23390;SDS011;11868;45.606;5.302;2023-08-07T13:36:34;1.20;;;0.75;;
23390;SDS011;11868;45.606;5.302;2023-08-07T13:39:00;0.95;;;0.70;;
23390;SDS011;11868;45.606;5.302;2023-08-07T13:41:26;2.25;;;0.70;;
23390;SDS011;11868;45.606;5.302;2023-08-07T13:43:51;1.73;;;1.00;;
23390;SDS011;11868;45.606;5.302;2023-08-07T13:46:17;1.20;;;0.75;;
23390;SDS011;11868;45.606;5.302;2023-08-07T13:48:43;4.15;;;0.90;;
23390;SDS011;11868;45.606;5.302;2023-08-07T13:51:09;2.15;;;0.80;;
23390;SDS011;11868;45.606;5.302;2023-08-07T13:53:35;0.85;;;0.63;;
23390;SDS011;11868;45.606;5.302;2023-08-07T13:56:00;1.05;;;0.65;;
23390;SDS011;11868;45.606;5.302;2023-08-07T13:58:26;3.22;;;0.90;;
23390;SDS011;11868;45.606;5.302;2023-08-07T14:00:51;0.82;;;0.50;;
23390;SDS011;11868;45.606;5.302;2023-08-07T14:03:16;0.70;;;0.70;;
23390;SDS011;11868;45.606;5.302;2023-08-07T14:05:42;2.63;;;0.90;;
23390;SDS011;11868;45.606;5.302;2023-08-07T14:08:07;0.75;;;0.68;;
23390;SDS011;11868;45.606;5.302;2023-08-07T14:10:35;2.15;;;0.80;;
23390;SDS011;11868;45.606;5.302;2023-08-07T14:13:01;0.60;;;0.60;;
23390;SDS011;11868;45.606;5.302;2023-08-07T14:15:27;0.88;;;0.70;;
23390;SDS011;11868;45.606;5.302;2023-08-07T14:17:52;1.90;;;0.70;;
23390;SDS011;11868;45.606;5.302;2023-08-07T14:20:18;1.10;;;0.60;;
23390;SDS011;11868;45.606;5.302;2023-08-07T14:22:43;1.10;;;0.70;;
23390;SDS011;11868;45.606;5.302;2023-08-07T14:25:09;1.08;;;0.60;;
23390;SDS011;11868;45.606;5.302;2023-08-07T14:27:34;1.33;;;0.82;;
23390;SDS011;11868;45.606;5.302;2023-08-07T14:30:00;1.02;;;0.68;;
23390;SDS011;11868;45.606;5.302;2023-08-07T14:32:25;2.33;;;0.80;;
23390;SDS011;11868;45.606;5.302;2023-08-07T14:34:51;2.38;;;0.90;;
23390;SDS011;11868;45.606;5.302;2023-08-07T14:37:17;2.05;;;0.80;;
23390;SDS011;11868;45.606;5.302;2023-08-07T14:39:42;1.33;;;0.60;;
23390;SDS011;11868;45.606;5.302;2023-08-07T14:42:07;2.05;;;0.73;;
23390;SDS011;11868;45.606;5.302;2023-08-07T14:44:33;1.70;;;0.70;;
23390;SDS011;11868;45.606;5.302;2023-08-07T14:46:58;0.95;;;0.60;;
23390;SDS011;11868;45.606;5.302;2023-08-07T14:49:24;1.88;;;0.82;;
23390;SDS011;11868;45.606;5.302;2023-08-07T14:51:49;0.65;;;0.60;;
23390;SDS011;11868;45.606;5.302;2023-08-07T14:54:14;2.35;;;0.60;;